createdAt,value
2023-04-18T00:00:58.412Z,88.26
2023-04-18T00:01:58.450Z,89.19
2023-04-18T00:03:00.217Z,88.67
2023-04-18T00:03:58.516Z,89.29
2023-04-18T00:04:58.424Z,88.94
2023-04-18T00:05:58.334Z,88.94
2023-04-18T00:06:58.368Z,88.53
2023-04-18T00:07:58.289Z,88.43
2023-04-18T00:08:58.678Z,88.22
2023-04-18T00:09:58.299Z,87.91
2023-04-18T00:10:58.294Z,87.60
2023-04-18T00:11:58.251Z,87.70
2023-04-18T00:12:58.307Z,88.64
2023-04-18T00:13:58.254Z,88.22
2023-04-18T00:14:58.286Z,89.15
2023-04-18T00:15:58.231Z,88.43
2023-04-18T00:16:58.288Z,88.53
2023-04-18T00:17:58.219Z,88.01
2023-04-18T00:18:58.229Z,88.64
2023-04-18T00:19:58.205Z,88.18
2023-04-18T00:20:58.284Z,87.76
2023-04-18T00:21:58.168Z,88.18
2023-04-18T00:22:58.216Z,87.76
2023-04-18T00:23:58.130Z,87.25
2023-04-18T00:24:58.239Z,89.11
2023-04-18T00:25:58.141Z,89.52
2023-04-18T00:26:58.199Z,88.70
2023-04-18T00:27:58.088Z,88.28
2023-04-18T00:28:58.173Z,88.28
2023-04-18T00:29:58.084Z,88.80
2023-04-18T00:30:58.126Z,88.18
2023-04-18T00:31:58.104Z,88.49
2023-04-18T00:32:58.125Z,88.39
2023-04-18T00:33:58.058Z,88.07
2023-04-18T00:34:58.061Z,89.11
2023-04-18T00:35:58.024Z,88.59
2023-04-18T00:36:58.003Z,88.18
2023-04-18T00:37:57.983Z,87.04
2023-04-18T00:38:57.989Z,87.56
2023-04-18T00:39:57.995Z,88.49
2023-04-18T00:40:58.118Z,88.59
2023-04-18T00:41:57.948Z,88.49
2023-04-18T00:42:57.982Z,88.28
2023-04-18T00:43:57.974Z,89.22
2023-04-18T00:44:58.058Z,88.80
2023-04-18T00:45:58.019Z,88.59
2023-04-18T00:46:58.084Z,88.28
2023-04-18T00:47:58.086Z,88.49
2023-04-18T00:48:57.943Z,88.39
2023-04-18T00:49:57.961Z,87.46
2023-04-18T00:50:57.892Z,88.70
2023-04-18T00:51:57.995Z,88.59
2023-04-18T00:52:57.859Z,88.39
2023-04-18T00:53:57.819Z,88.18
2023-04-18T00:54:57.866Z,87.97
2023-04-18T00:55:58.026Z,88.18
2023-04-18T00:56:57.764Z,88.70
2023-04-18T00:57:57.789Z,88.70
2023-04-18T00:58:57.789Z,88.07
2023-04-18T00:59:57.747Z,89.52
2023-04-18T01:00:57.830Z,88.70
2023-04-18T01:01:57.811Z,87.87
2023-04-18T01:02:57.850Z,88.28
2023-04-18T01:03:58.201Z,89.32
2023-04-18T01:04:57.827Z,89.42
2023-04-18T01:05:57.814Z,89.11
2023-04-18T01:06:57.805Z,88.90
2023-04-18T01:07:57.763Z,89.62
2023-04-18T01:08:57.683Z,89.22
2023-04-18T01:09:57.883Z,88.49
2023-04-18T01:10:57.657Z,88.59
2023-04-18T01:11:57.680Z,88.90
2023-04-18T01:12:57.864Z,89.22
2023-04-18T01:13:57.632Z,88.59
2023-04-18T01:14:57.667Z,90.04
2023-04-18T01:15:57.641Z,89.22
2023-04-18T01:16:57.572Z,88.86
2023-04-18T01:17:57.652Z,89.17
2023-04-18T01:18:57.677Z,89.28
2023-04-18T01:19:57.676Z,89.07
2023-04-18T01:20:57.590Z,89.28
2023-04-18T01:21:57.526Z,89.38
2023-04-18T01:22:57.672Z,89.17
2023-04-18T01:23:57.529Z,88.76
2023-04-18T01:24:57.561Z,89.59
2023-04-18T01:25:57.564Z,90.00
2023-04-18T01:26:57.525Z,89.89
2023-04-18T01:27:57.480Z,89.69
2023-04-18T01:29:07.843Z,89.38
2023-04-18T01:29:57.705Z,89.17
2023-04-18T01:30:57.742Z,88.96
2023-04-18T01:31:57.435Z,89.07
2023-04-18T01:32:57.497Z,90.10
2023-04-18T01:33:57.406Z,88.86
2023-04-18T01:34:57.417Z,89.07
2023-04-18T01:35:57.520Z,89.28
2023-04-18T01:36:57.382Z,88.76
2023-04-18T01:37:57.391Z,89.48
2023-04-18T01:38:57.427Z,89.28
2023-04-18T01:39:57.394Z,89.07
2023-04-18T01:40:57.517Z,88.76
2023-04-18T01:41:57.368Z,89.48
2023-04-18T01:42:57.371Z,90.52
2023-04-18T01:43:57.353Z,90.00
2023-04-18T01:44:57.336Z,89.59
2023-04-18T01:45:57.300Z,89.38
2023-04-18T01:46:57.352Z,89.07
2023-04-18T01:47:57.371Z,88.96
2023-04-18T01:48:57.372Z,89.79
2023-04-18T01:49:57.262Z,90.72
2023-04-18T01:50:57.279Z,90.52
2023-04-18T01:51:57.254Z,90.41
2023-04-18T01:52:57.249Z,90.00
2023-04-18T01:53:57.264Z,89.48
2023-04-18T01:54:57.184Z,89.69
2023-04-18T01:55:57.169Z,90.93
2023-04-18T01:56:57.160Z,90.52
2023-04-18T01:57:57.266Z,90.41
2023-04-18T01:58:57.217Z,90.83
2023-04-18T01:59:57.122Z,90.20
2023-04-18T02:00:57.217Z,90.10
2023-04-18T02:01:57.208Z,90.52
2023-04-18T02:02:57.170Z,90.00
2023-04-18T02:03:57.329Z,91.34
2023-04-18T02:04:57.123Z,90.52
2023-04-18T02:05:57.109Z,91.24
2023-04-18T02:06:57.686Z,91.03
2023-04-18T02:07:57.068Z,91.03
2023-04-18T02:08:57.120Z,90.93
2023-04-18T02:09:57.121Z,91.34
2023-04-18T02:10:57.025Z,90.52
2023-04-18T02:11:57.131Z,91.44
2023-04-18T02:12:57.064Z,91.24
2023-04-18T02:13:57.009Z,91.34
2023-04-18T02:14:57.003Z,91.75
2023-04-18T02:15:57.141Z,91.86
2023-04-18T02:16:57.009Z,91.86
2023-04-18T02:17:56.953Z,91.44
2023-04-18T02:18:56.927Z,91.03
2023-04-18T02:19:56.938Z,91.34
2023-04-18T02:20:56.975Z,91.24
2023-04-18T02:21:56.976Z,91.86
2023-04-18T02:22:56.908Z,91.44
2023-04-18T02:23:56.902Z,91.24
2023-04-18T02:24:56.873Z,91.24
2023-04-18T02:25:56.867Z,91.24
2023-04-18T02:26:56.834Z,91.65
2023-04-18T02:27:56.845Z,92.17
2023-04-18T02:28:56.870Z,91.86
2023-04-18T02:29:56.823Z,92.48
2023-04-18T02:30:56.797Z,91.75
2023-04-18T02:31:56.846Z,91.96
2023-04-18T02:32:56.841Z,91.44
2023-04-18T02:33:56.826Z,91.65
2023-04-18T02:34:56.771Z,91.75
2023-04-18T02:35:56.787Z,91.96
2023-04-18T02:36:56.758Z,91.65
2023-04-18T02:37:56.754Z,91.65
2023-04-18T02:38:56.723Z,92.58
2023-04-18T02:39:56.723Z,92.27
2023-04-18T02:40:57.820Z,91.96
2023-04-18T02:41:56.701Z,92.27
2023-04-18T02:42:56.694Z,91.65
2023-04-18T02:43:56.697Z,92.17
2023-04-18T02:44:56.694Z,92.58
2023-04-18T02:45:56.706Z,92.89
2023-04-18T02:46:56.659Z,92.38
2023-04-18T02:47:56.956Z,91.65
2023-04-18T02:48:56.636Z,92.17
2023-04-18T02:49:56.680Z,92.27
2023-04-18T02:50:56.627Z,92.27
2023-04-18T02:51:56.576Z,92.79
2023-04-18T02:52:56.621Z,92.79
2023-04-18T02:53:56.648Z,92.68
2023-04-18T02:54:56.590Z,92.68
2023-04-18T02:55:56.543Z,92.68
2023-04-18T02:56:56.592Z,93.10
2023-04-18T02:57:56.509Z,92.99
2023-04-18T02:58:56.506Z,92.89
2023-04-18T02:59:56.605Z,93.10
2023-04-18T03:00:56.553Z,93.30
2023-04-18T03:01:56.576Z,93.30
2023-04-18T03:02:56.696Z,93.93
2023-04-18T03:03:56.508Z,93.41
2023-04-18T03:04:56.583Z,93.30
2023-04-18T03:05:56.583Z,94.34
2023-04-18T03:06:56.465Z,93.72
2023-04-18T03:07:56.428Z,93.93
2023-04-18T03:08:56.653Z,94.13
2023-04-18T03:09:56.410Z,94.44
2023-04-18T03:10:56.569Z,94.28
2023-04-18T03:11:56.495Z,94.75
2023-04-18T03:12:56.399Z,94.69
2023-04-18T03:13:56.456Z,94.38
2023-04-18T03:14:56.362Z,94.48
2023-04-18T03:15:56.411Z,94.79
2023-04-18T03:16:56.330Z,95.10
2023-04-18T03:17:56.861Z,95.21
2023-04-18T03:18:56.314Z,95.21
2023-04-18T03:19:56.323Z,94.79
2023-04-18T03:20:56.328Z,94.90
2023-04-18T03:21:56.353Z,94.90
2023-04-18T03:22:56.271Z,95.00
2023-04-18T03:23:56.272Z,94.79
2023-04-18T03:24:56.247Z,95.00
2023-04-18T03:25:56.248Z,95.21
2023-04-18T03:26:56.254Z,95.21
2023-04-18T03:27:56.209Z,95.31
2023-04-18T03:28:56.216Z,95.00
2023-04-18T03:29:56.379Z,95.31
2023-04-18T03:30:56.219Z,94.90
2023-04-18T03:31:56.186Z,95.00
2023-04-18T03:32:56.353Z,95.52
2023-04-18T03:33:56.168Z,95.21
2023-04-18T03:34:56.192Z,95.10
2023-04-18T03:35:56.162Z,95.21
2023-04-18T03:36:56.217Z,95.62
2023-04-18T03:37:56.261Z,95.00
2023-04-18T03:38:56.079Z,95.31
2023-04-18T03:39:56.185Z,95.83
2023-04-18T03:40:56.083Z,95.73
2023-04-18T03:41:56.098Z,95.52
2023-04-18T03:42:56.065Z,95.31
2023-04-18T03:43:56.059Z,95.42
2023-04-18T03:44:56.079Z,95.52
2023-04-18T03:45:56.115Z,95.42
2023-04-18T03:46:56.047Z,95.21
2023-04-18T03:47:56.089Z,95.83
2023-04-18T03:48:56.032Z,95.52
2023-04-18T03:49:55.980Z,95.73
2023-04-18T03:50:55.973Z,95.83
2023-04-18T03:51:55.980Z,96.14
2023-04-18T03:52:55.992Z,95.52
2023-04-18T03:53:55.939Z,96.03
2023-04-18T03:54:55.991Z,95.42
2023-04-18T03:55:55.960Z,96.03
2023-04-18T03:56:55.941Z,96.34
2023-04-18T03:57:55.952Z,95.94
2023-04-18T03:58:55.938Z,96.03
2023-04-18T03:59:55.852Z,96.39
2023-04-18T04:00:55.894Z,96.39
2023-04-18T04:01:56.086Z,96.59
2023-04-18T04:02:56.092Z,96.70
2023-04-18T04:03:56.079Z,96.70
2023-04-18T04:04:55.909Z,96.91
2023-04-18T04:05:55.841Z,97.32
2023-04-18T04:06:55.886Z,97.32
2023-04-18T04:07:55.865Z,97.42
2023-04-18T04:08:55.805Z,97.01
2023-04-18T04:09:55.936Z,97.28
2023-04-18T04:10:55.862Z,97.07
2023-04-18T04:11:55.869Z,96.55
2023-04-18T04:12:55.782Z,96.70
2023-04-18T04:13:55.775Z,96.66
2023-04-18T04:14:55.745Z,96.76
2023-04-18T04:15:55.708Z,96.80
2023-04-18T04:16:55.960Z,97.11
2023-04-18T04:17:55.761Z,97.32
2023-04-18T04:18:55.666Z,96.91
2023-04-18T04:19:55.691Z,97.53
2023-04-18T04:20:55.669Z,97.22
2023-04-18T04:21:55.615Z,97.28
2023-04-18T04:22:55.646Z,96.86
2023-04-18T04:23:55.641Z,97.17
2023-04-18T04:24:55.831Z,97.07
2023-04-18T04:25:55.599Z,96.97
2023-04-18T04:26:55.599Z,96.97
2023-04-18T04:27:55.527Z,97.17
2023-04-18T04:28:55.518Z,97.49
2023-04-18T04:29:55.498Z,97.07
2023-04-18T04:30:55.534Z,96.86
2023-04-18T04:31:55.613Z,96.80
2023-04-18T04:32:55.554Z,97.38
2023-04-18T04:33:55.632Z,97.07
2023-04-18T04:34:55.499Z,96.76
2023-04-18T04:35:55.627Z,96.91
2023-04-18T04:36:55.480Z,97.42
2023-04-18T04:37:55.407Z,97.22
2023-04-18T04:38:55.484Z,97.22
2023-04-18T04:39:55.480Z,97.42
2023-04-18T04:40:55.376Z,97.38
2023-04-18T04:41:55.403Z,97.53
2023-04-18T04:42:55.465Z,97.59
2023-04-18T04:43:55.360Z,97.17
2023-04-18T04:44:55.546Z,97.59
2023-04-18T04:45:55.487Z,96.76
2023-04-18T04:46:55.322Z,96.86
2023-04-18T04:47:55.339Z,96.86
2023-04-18T04:48:55.369Z,97.11
2023-04-18T04:49:55.365Z,96.80
2023-04-18T04:50:55.313Z,97.11
2023-04-18T04:51:55.626Z,96.91
2023-04-18T04:52:55.293Z,97.01
2023-04-18T04:53:55.268Z,97.53
2023-04-18T04:54:55.273Z,97.22
2023-04-18T04:55:55.285Z,97.42
2023-04-18T04:56:55.218Z,97.94
2023-04-18T04:57:55.214Z,97.94
2023-04-18T04:58:55.226Z,97.94
2023-04-18T04:59:55.206Z,97.94
2023-04-18T05:00:55.254Z,97.74
2023-04-18T05:01:55.207Z,97.94
2023-04-18T05:02:55.362Z,97.84
2023-04-18T05:03:55.218Z,98.05
2023-04-18T05:04:55.206Z,97.94
2023-04-18T05:05:55.141Z,98.15
2023-04-18T05:06:55.241Z,98.66
2023-04-18T05:07:55.137Z,98.35
2023-04-18T05:08:55.116Z,98.46
2023-04-18T05:09:55.102Z,98.35
2023-04-18T05:10:55.112Z,98.25
2023-04-18T05:11:55.174Z,98.35
2023-04-18T05:12:55.105Z,98.25
2023-04-18T05:13:55.024Z,98.35
2023-04-18T05:14:55.144Z,98.66
2023-04-18T05:15:55.003Z,98.46
2023-04-18T05:16:55.099Z,98.46
2023-04-18T05:17:55.049Z,98.66
2023-04-18T05:18:55.242Z,98.35
2023-04-18T05:19:55.038Z,98.66
2023-04-18T05:20:55.033Z,98.56
2023-04-18T05:21:55.105Z,98.97
2023-04-18T05:22:54.950Z,98.97
2023-04-18T05:23:55.037Z,98.66
2023-04-18T05:24:55.139Z,98.35
2023-04-18T05:25:54.995Z,98.56
2023-04-18T05:26:55.009Z,98.46
2023-04-18T05:27:55.073Z,98.46
2023-04-18T05:28:54.944Z,98.77
2023-04-18T05:29:54.976Z,98.25
2023-04-18T05:30:54.870Z,98.05
2023-04-18T05:31:54.978Z,98.15
2023-04-18T05:32:55.016Z,98.05
2023-04-18T05:33:54.843Z,98.25
2023-04-18T05:34:54.833Z,98.35
2023-04-18T05:35:54.843Z,98.97
2023-04-18T05:36:54.874Z,98.77
2023-04-18T05:37:54.913Z,98.25
2023-04-18T05:38:54.835Z,98.05
2023-04-18T05:39:54.757Z,98.35
2023-04-18T05:40:54.833Z,98.56
2023-04-18T05:41:54.820Z,98.66
2023-04-18T05:42:54.817Z,99.18
2023-04-18T05:44:04.904Z,98.97
2023-04-18T05:44:54.775Z,98.66
2023-04-18T05:45:56.547Z,98.87
2023-04-18T05:46:54.789Z,98.97
2023-04-18T05:47:54.815Z,98.87
2023-04-18T05:48:54.758Z,98.77
2023-04-18T05:49:54.764Z,98.46
2023-04-18T05:50:54.658Z,98.66
2023-04-18T05:51:54.709Z,99.29
2023-04-18T05:52:54.704Z,98.72
2023-04-18T05:53:54.659Z,98.87
2023-04-18T05:54:54.663Z,98.72
2023-04-18T05:55:54.638Z,99.14
2023-04-18T05:56:54.715Z,99.04
2023-04-18T05:57:54.677Z,99.04
2023-04-18T05:58:54.598Z,99.04
2023-04-18T05:59:54.611Z,99.04
2023-04-18T06:00:54.542Z,99.04
2023-04-18T06:01:54.581Z,99.24
2023-04-18T06:02:54.713Z,99.14
2023-04-18T06:03:54.711Z,99.14
2023-04-18T06:04:54.745Z,98.93
2023-04-18T06:05:54.823Z,99.04
2023-04-18T06:06:54.557Z,99.44
2023-04-18T06:07:54.518Z,98.93
2023-04-18T06:08:54.715Z,99.14
2023-04-18T06:09:54.575Z,98.83
2023-04-18T06:10:54.499Z,98.83
2023-04-18T06:11:54.407Z,99.04
2023-04-18T06:12:54.434Z,99.14
2023-04-18T06:13:54.432Z,99.34
2023-04-18T06:14:54.433Z,99.44
2023-04-18T06:15:54.482Z,99.44
2023-04-18T06:16:54.456Z,99.44
2023-04-18T06:17:54.452Z,99.44
2023-04-18T06:18:54.401Z,99.14
2023-04-18T06:19:54.396Z,99.34
2023-04-18T06:20:54.322Z,99.65
2023-04-18T06:21:54.370Z,99.44
2023-04-18T06:22:54.386Z,99.34
2023-04-18T06:23:54.375Z,99.24
2023-04-18T06:24:54.291Z,99.34
2023-04-18T06:25:54.386Z,99.24
2023-04-18T06:26:54.278Z,99.44
2023-04-18T06:27:54.434Z,99.34
2023-04-18T06:28:54.423Z,99.14
2023-04-18T06:29:54.242Z,98.83
2023-04-18T06:30:54.308Z,98.93
2023-04-18T06:31:54.295Z,99.55
2023-04-18T06:32:54.267Z,99.34
2023-04-18T06:33:54.209Z,99.34
2023-04-18T06:34:54.188Z,99.24
2023-04-18T06:35:54.197Z,99.34
2023-04-18T06:36:54.173Z,99.34
2023-04-18T06:37:54.163Z,99.34
2023-04-18T06:38:54.161Z,99.65
2023-04-18T06:39:54.133Z,99.24
2023-04-18T06:40:54.109Z,99.44
2023-04-18T06:41:54.116Z,99.55
2023-04-18T06:42:54.196Z,99.96
2023-04-18T06:44:03.650Z,99.65
2023-04-18T06:44:54.127Z,99.04
2023-04-18T06:45:54.135Z,99.34
2023-04-18T06:46:54.097Z,99.65
2023-04-18T06:47:54.074Z,99.55
2023-04-18T06:48:54.152Z,99.14
2023-04-18T06:49:54.049Z,99.24
2023-04-18T06:50:54.029Z,99.55
2023-04-18T06:51:54.045Z,99.86
2023-04-18T06:52:54.100Z,99.86
2023-04-18T06:53:54.018Z,99.76
2023-04-18T06:54:54.007Z,99.76
2023-04-18T06:55:53.968Z,99.99
2023-04-18T06:56:53.988Z,99.86
2023-04-18T06:57:54.018Z,99.55
2023-04-18T06:58:53.996Z,99.65
2023-04-18T06:59:54.022Z,99.65
2023-04-18T07:00:53.954Z,99.55
2023-04-18T07:01:53.998Z,99.55
2023-04-18T07:02:54.097Z,99.65
2023-04-18T07:03:53.970Z,99.96
2023-04-18T07:04:54.056Z,99.86
2023-04-18T07:05:53.979Z,99.55
2023-04-18T07:06:53.857Z,99.44
2023-04-18T07:07:53.879Z,99.24
2023-04-18T07:08:54.543Z,99.44
2023-04-18T07:09:53.820Z,99.65
2023-04-18T07:10:53.844Z,99.34
2023-04-18T07:11:53.952Z,99.55
2023-04-18T07:12:53.818Z,99.61
2023-04-18T07:13:53.797Z,99.30
2023-04-18T07:14:53.756Z,99.40
2023-04-18T07:15:53.846Z,99.44
2023-04-18T07:16:53.787Z,99.65
2023-04-18T07:17:53.822Z,99.30
2023-04-18T07:18:53.749Z,99.30
2023-04-18T07:19:53.772Z,99.55
2023-04-18T07:20:53.722Z,99.71
2023-04-18T07:21:53.734Z,99.61
2023-04-18T07:22:53.752Z,99.09
2023-04-18T07:23:53.704Z,99.34
2023-04-18T07:24:53.660Z,99.19
2023-04-18T07:25:53.708Z,99.30
2023-04-18T07:26:55.038Z,99.19
2023-04-18T07:27:53.711Z,99.61
2023-04-18T07:28:53.695Z,99.99
2023-04-18T07:29:53.660Z,99.71
2023-04-18T07:30:53.628Z,99.40
2023-04-18T07:31:53.636Z,99.40
2023-04-18T07:32:53.623Z,99.30
2023-04-18T07:33:53.586Z,99.71
2023-04-18T07:34:53.561Z,99.61
2023-04-18T07:35:53.548Z,99.40
2023-04-18T07:36:53.667Z,99.30
2023-04-18T07:37:53.561Z,98.99
2023-04-18T10:48:33.766Z,89.17
2023-04-18T10:49:33.083Z,88.86
2023-04-18T10:50:32.783Z,89.79
2023-04-18T10:51:32.812Z,89.28
2023-04-18T10:52:32.793Z,88.56
2023-04-18T10:53:32.775Z,89.58
2023-04-18T10:54:32.774Z,89.17
2023-04-18T10:55:32.761Z,89.07
2023-04-18T10:56:32.729Z,89.48
2023-04-18T10:57:32.725Z,89.38
2023-04-18T10:58:32.716Z,88.96
2023-04-18T10:59:32.766Z,88.92
2023-04-18T11:00:32.769Z,88.10
2023-04-18T11:01:33.191Z,88.20
2023-04-18T11:02:32.865Z,88.62
2023-04-18T11:03:32.747Z,87.75
2023-04-18T11:04:32.704Z,88.06
2023-04-18T11:05:32.661Z,88.27
2023-04-18T11:06:32.658Z,88.17
2023-04-18T11:07:32.626Z,87.96
2023-04-18T11:08:32.608Z,87.24
2023-04-18T11:09:32.601Z,87.96
2023-04-18T11:10:32.636Z,87.71
2023-04-18T11:11:32.611Z,87.71
2023-04-18T11:12:32.580Z,86.27
2023-04-18T11:13:32.578Z,87.40
2023-04-18T11:14:32.591Z,86.44
2023-04-18T11:15:32.603Z,86.13
2023-04-18T11:16:32.562Z,85.93
2023-04-18T11:17:32.647Z,87.05
2023-04-18T11:18:32.503Z,87.16
2023-04-18T11:19:32.519Z,85.52
2023-04-18T11:20:32.519Z,85.72
2023-04-18T11:21:32.463Z,85.72
2023-04-18T11:22:32.500Z,85.31
2023-04-18T11:23:32.478Z,85.41
2023-04-18T11:24:32.482Z,85.00
2023-04-18T11:25:32.489Z,85.41
2023-04-18T11:26:32.596Z,85.52
2023-04-18T11:27:32.432Z,86.03
2023-04-18T11:28:32.435Z,84.80
2023-04-18T11:29:32.405Z,84.59
2023-04-18T11:30:32.404Z,84.74
2023-04-18T11:31:32.490Z,85.14
2023-04-18T11:32:32.476Z,85.76
2023-04-18T11:33:32.373Z,85.76
2023-04-18T11:34:32.361Z,85.62
2023-04-18T11:35:32.337Z,85.41
2023-04-18T11:36:32.339Z,85.41
2023-04-18T11:37:32.328Z,85.31
2023-04-18T11:38:32.336Z,86.03
2023-04-18T11:39:32.334Z,85.66
2023-04-18T11:40:32.304Z,86.13
2023-04-18T11:41:32.308Z,85.41
2023-04-18T11:42:32.334Z,84.90
2023-04-18T11:43:32.298Z,85.82
2023-04-18T11:44:33.761Z,86.13
2023-04-18T11:45:32.253Z,85.52
2023-04-18T11:46:32.374Z,85.31
2023-04-18T11:47:32.264Z,86.03
2023-04-18T11:48:32.201Z,86.33
2023-04-18T11:49:32.226Z,85.72
2023-04-18T11:50:32.194Z,85.62
2023-04-18T11:51:32.188Z,85.62
2023-04-18T11:52:32.365Z,85.41
2023-04-18T11:53:32.163Z,84.90
2023-04-18T11:54:32.151Z,85.62
2023-04-18T11:55:32.180Z,85.41
2023-04-18T11:56:34.000Z,86.33
2023-04-18T11:57:32.145Z,86.03
2023-04-18T11:58:32.098Z,85.52
2023-04-18T11:59:32.081Z,84.69
2023-04-18T12:00:32.147Z,85.21
2023-04-18T12:01:32.105Z,85.31
2023-04-18T12:02:32.178Z,85.27
2023-04-18T12:03:32.217Z,84.86
2023-04-18T12:04:32.203Z,83.42
2023-04-18T12:05:32.310Z,84.55
2023-04-18T12:06:32.226Z,84.04
2023-04-18T12:07:32.023Z,83.73
2023-04-18T12:08:32.008Z,83.53
2023-04-18T12:09:32.003Z,82.43
2023-04-18T12:10:31.993Z,82.75
2023-04-18T12:11:31.975Z,83.77
2023-04-18T12:12:32.018Z,83.87
2023-04-18T12:13:32.027Z,81.51
2023-04-18T12:14:31.963Z,82.23
2023-04-18T12:15:31.978Z,83.87
2023-04-18T12:16:32.041Z,83.56
2023-04-18T12:17:31.936Z,82.75
2023-04-18T12:18:31.944Z,83.46
2023-04-18T12:19:31.905Z,83.15
2023-04-18T12:20:32.174Z,84.08
2023-04-18T12:21:31.906Z,84.08
2023-04-18T12:22:31.869Z,82.84
2023-04-18T12:23:31.865Z,83.26
2023-04-18T12:24:31.873Z,83.26
2023-04-18T12:25:31.847Z,83.01
2023-04-18T12:26:31.890Z,83.32
2023-04-18T12:27:31.798Z,83.53
2023-04-18T12:28:31.804Z,83.73
2023-04-18T12:29:31.779Z,83.63
2023-04-18T12:30:31.816Z,84.14
2023-04-18T12:31:31.803Z,82.40
2023-04-18T12:32:31.843Z,84.55
2023-04-18T12:33:31.818Z,84.04
2023-04-18T12:34:31.754Z,83.80
2023-04-18T12:35:31.737Z,84.10
2023-04-18T12:36:31.742Z,82.87
2023-04-18T12:37:31.694Z,81.64
2023-04-18T12:38:31.700Z,82.67
2023-04-18T12:39:31.686Z,82.36
2023-04-18T12:40:31.701Z,83.59
2023-04-18T12:41:31.725Z,82.26
2023-04-18T12:42:31.671Z,82.05
2023-04-18T12:43:31.656Z,80.88
2023-04-18T12:44:31.628Z,80.68
2023-04-18T12:45:31.646Z,81.09
2023-04-18T12:46:31.621Z,81.98
2023-04-18T12:47:31.694Z,81.57
2023-04-18T12:48:31.646Z,81.36
2023-04-18T12:49:31.734Z,81.46
2023-04-18T12:50:31.596Z,81.46
2023-04-18T12:51:31.550Z,79.72
2023-04-18T12:52:31.559Z,80.03
2023-04-18T12:53:31.542Z,81.15
2023-04-18T12:54:31.551Z,81.15
2023-04-18T12:55:31.527Z,80.85
2023-04-18T12:56:31.507Z,80.74
2023-04-18T12:57:31.857Z,81.71
2023-04-18T12:58:31.501Z,81.29
2023-04-18T12:59:31.467Z,81.60
2023-04-18T13:00:31.501Z,82.01
2023-04-18T13:01:31.515Z,81.91
2023-04-18T13:02:31.560Z,81.60
2023-04-18T13:03:31.671Z,81.74
2023-04-18T13:04:31.798Z,81.95
2023-04-18T13:05:34.019Z,81.74
2023-04-18T13:06:31.398Z,82.26
2023-04-18T13:07:31.376Z,81.64
2023-04-18T13:08:31.452Z,81.64
2023-04-18T13:09:31.415Z,82.56
2023-04-18T13:10:31.357Z,82.36
2023-04-18T13:11:31.351Z,82.05
2023-04-18T13:12:31.357Z,81.64
2023-04-18T13:13:31.893Z,81.64
2023-04-18T13:14:31.324Z,82.26
2023-04-18T13:15:31.365Z,82.36
2023-04-18T13:16:31.332Z,82.15
2023-04-18T13:17:31.418Z,81.64
2023-04-18T13:18:31.294Z,82.26
2023-04-18T13:19:31.276Z,81.43
2023-04-18T13:20:31.248Z,81.85
2023-04-18T13:21:31.256Z,82.26
2023-04-18T13:22:31.229Z,82.26
2023-04-18T13:23:31.304Z,82.46
2023-04-18T13:24:31.212Z,81.64
2023-04-18T13:25:31.285Z,82.05
2023-04-18T13:26:31.187Z,81.85
2023-04-18T13:27:31.177Z,81.54
2023-04-18T13:28:31.261Z,81.48
2023-04-18T13:29:31.210Z,82.29
2023-04-18T13:30:31.153Z,83.12
2023-04-18T13:31:31.185Z,81.95
2023-04-18T13:32:31.166Z,82.56
2023-04-18T13:33:31.125Z,82.26
2023-04-18T13:34:31.113Z,82.05
2023-04-18T13:35:31.251Z,82.46
2023-04-18T13:36:31.096Z,82.67
2023-04-18T13:37:31.078Z,82.77
2023-04-18T13:38:31.097Z,82.87
2023-04-18T13:39:31.785Z,82.26
2023-04-18T13:40:31.051Z,82.05
2023-04-18T13:41:31.044Z,81.13
2023-04-18T13:42:31.672Z,81.64
2023-04-18T13:43:31.084Z,82.15
2023-04-18T13:44:30.995Z,82.29
2023-04-18T13:45:31.040Z,81.57
2023-04-18T13:46:31.064Z,82.50
2023-04-18T13:47:31.068Z,82.09
2023-04-18T13:48:31.009Z,81.16
2023-04-18T13:49:30.960Z,81.48
2023-04-18T13:50:30.977Z,80.41
2023-04-18T13:51:31.044Z,81.64
2023-04-18T13:52:30.928Z,81.34
2023-04-18T13:53:31.309Z,81.43
2023-04-18T13:54:30.890Z,81.23
2023-04-18T13:55:30.908Z,81.34
2023-04-18T13:56:30.908Z,80.31
2023-04-18T13:57:30.924Z,80.51
2023-04-18T13:58:30.878Z,79.90
2023-04-18T13:59:30.879Z,79.90
2023-04-18T14:00:30.894Z,81.85
2023-04-18T14:01:40.480Z,80.72
2023-04-18T14:02:31.014Z,79.90
2023-04-18T14:03:38.850Z,79.38
2023-04-18T14:04:37.801Z,79.69
2023-04-18T14:05:37.840Z,80.72
2023-04-18T14:06:30.843Z,80.72
2023-04-18T14:07:40.300Z,81.43
2023-04-18T14:08:40.698Z,80.82
2023-04-18T14:09:39.384Z,81.34
2023-04-18T14:10:39.533Z,80.92
2023-04-18T14:11:40.273Z,80.68
2023-04-18T14:12:38.268Z,81.20
2023-04-18T14:13:40.653Z,80.95
2023-04-18T14:14:42.771Z,80.85
2023-04-18T14:15:31.084Z,80.13
2023-04-18T14:16:32.266Z,80.13
2023-04-18T14:17:30.669Z,81.32
2023-04-18T14:18:30.657Z,80.54
2023-04-18T14:19:30.770Z,79.89
2023-04-18T14:20:30.630Z,79.38
2023-04-18T14:21:30.713Z,79.38
2023-04-18T14:22:30.704Z,80.19
2023-04-18T14:23:30.640Z,80.51
2023-04-18T14:24:30.693Z,79.54
2023-04-18T14:25:30.946Z,78.93
2023-04-18T14:26:30.972Z,77.09
2023-04-18T14:27:30.664Z,78.35
2023-04-18T14:28:30.743Z,79.38
2023-04-18T14:29:30.663Z,78.52
2023-04-18T14:30:30.550Z,79.00
2023-04-18T14:31:30.563Z,78.59
2023-04-18T14:32:31.553Z,78.28
2023-04-18T14:33:32.889Z,78.69
2023-04-18T14:34:32.680Z,75.99
2023-04-18T14:35:30.489Z,77.15
2023-04-18T14:36:30.602Z,77.12
2023-04-18T14:37:30.524Z,77.94
2023-04-18T14:38:30.445Z,77.39
2023-04-18T14:39:30.456Z,76.47
2023-04-18T14:40:32.581Z,75.21
2023-04-18T14:41:30.440Z,76.23
2023-04-18T14:42:31.025Z,75.92
2023-04-18T14:43:30.488Z,74.69
2023-04-18T14:44:37.294Z,75.78
2023-04-18T14:45:37.353Z,73.57
2023-04-18T14:46:37.103Z,74.18
2023-04-18T14:48:48.659Z,75.04
2023-04-18T14:49:56.096Z,73.50
2023-04-18T14:51:00.242Z,75.51
2023-04-18T14:51:56.531Z,74.90
2023-04-18T14:54:00.162Z,72.75
2023-04-18T14:55:10.316Z,73.68
2023-04-18T14:57:20.222Z,72.00
2023-04-18T14:58:30.483Z,73.03
2023-04-18T14:59:28.004Z,74.15
2023-04-18T15:00:21.158Z,73.23
2023-04-18T15:01:29.546Z,73.13
2023-04-18T15:02:29.187Z,74.15
2023-04-18T15:03:28.574Z,73.64
2023-04-18T15:04:29.338Z,72.45
2023-04-18T15:05:27.764Z,73.68
2023-04-18T15:06:30.845Z,74.49
2023-04-18T15:07:29.156Z,73.77
2023-04-18T15:08:30.715Z,73.47
2023-04-18T15:11:44.424Z,75.00
2023-04-18T15:12:52.854Z,75.51
2023-04-18T15:13:54.764Z,73.84
2023-04-18T15:14:53.519Z,74.05
2023-04-18T15:15:54.402Z,72.92
2023-04-18T15:16:45.410Z,73.74
2023-04-18T15:18:11.381Z,73.33
2023-04-18T15:18:45.416Z,72.52
2023-04-18T15:21:02.798Z,73.13
2023-04-18T15:22:12.269Z,72.62
2023-04-18T15:23:11.705Z,73.23
2023-04-18T15:24:14.175Z,72.00
2023-04-18T15:25:13.362Z,73.64
2023-04-18T15:26:12.405Z,72.62
2023-04-18T15:27:11.081Z,73.98
2023-04-18T15:28:11.131Z,72.34
2023-04-18T15:29:11.342Z,72.96
2023-04-18T15:31:16.102Z,73.40
2023-04-18T15:32:40.935Z,73.54
2023-04-18T15:33:25.771Z,74.26
2023-04-18T15:34:25.317Z,74.05
2023-04-18T15:35:25.533Z,73.64
2023-04-18T15:36:25.810Z,74.76
2023-04-18T15:37:25.773Z,74.63
2023-04-18T15:38:25.945Z,74.02
2023-04-18T15:39:16.976Z,74.93
2023-04-18T15:40:26.071Z,74.66
2023-04-18T15:41:28.505Z,73.44
2023-04-18T15:42:24.672Z,73.44
2023-04-18T15:45:05.882Z,74.35
2023-04-18T15:46:15.813Z,73.23
2023-04-18T15:47:15.420Z,75.27
2023-04-18T15:48:14.474Z,74.02
2023-04-18T15:49:14.817Z,74.11
2023-04-18T15:50:17.726Z,73.85
2023-04-18T15:51:13.676Z,74.56
2023-04-18T15:52:15.912Z,75.17
2023-04-18T15:53:14.510Z,74.97
2023-04-18T15:54:14.037Z,75.14
2023-04-18T15:55:15.012Z,74.43
2023-04-18T15:56:14.655Z,73.85
2023-04-18T15:57:15.555Z,74.22
2023-04-18T15:58:06.668Z,74.63
2023-04-18T15:59:16.978Z,73.81
2023-04-18T16:00:15.981Z,73.91
2023-04-18T16:01:17.225Z,73.81
2023-04-18T16:02:13.380Z,73.88
2023-04-18T16:03:13.855Z,73.27
2023-04-18T16:04:15.686Z,72.75
2023-04-18T16:05:14.386Z,73.77
2023-04-18T16:06:17.035Z,74.49
2023-04-18T16:07:06.536Z,74.08
2023-04-18T16:08:16.445Z,73.68
2023-04-18T16:09:17.444Z,74.08
2023-04-18T16:10:15.660Z,74.59
2023-04-18T16:11:14.490Z,73.40
2023-04-18T16:12:15.657Z,72.38
2023-04-18T16:13:15.064Z,74.02